Time;durP1;ratioP1;P1;durP2;ratioP2;P2;SDS_P1;SDS_P2;PMS_P1;PMS_P2;Temp;Humidity;BMP_temperature;BMP_pressure;BME280_temperature;BME280_humidity;BME280_pressure;Samples;Min_cycle;Max_cycle;Signal;HPM_P1;HPM_P2
2024/01/30 00:01:56;;;;;;;7.97;5.38;;;;;;;;;;5020638;28;20033;-77
2024/01/30 00:04:22;;;;;;;8.02;5.07;;;;;;;;;;5023490;28;20029;-77
2024/01/30 00:06:48;;;;;;;8.32;4.93;;;;;;;;;;5018557;28;20033;-77
2024/01/30 00:09:15;;;;;;;7.72;5.18;;;;;;;;;;5021632;28;20030;-77
2024/01/30 00:11:41;;;;;;;8.80;5.50;;;;;;;;;;5020184;28;20030;-76
2024/01/30 00:14:06;;;;;;;14.57;7.10;;;;;;;;;;5022302;28;20056;-77
2024/01/30 00:16:32;;;;;;;11.40;6.70;;;;;;;;;;5019982;28;20033;-75
2024/01/30 00:18:58;;;;;;;9.55;5.80;;;;;;;;;;5020488;28;20049;-77
2024/01/30 00:21:24;;;;;;;8.82;5.45;;;;;;;;;;5020925;28;20032;-76
2024/01/30 00:23:50;;;;;;;11.48;5.10;;;;;;;;;;5025296;28;20112;-77
2024/01/30 00:26:16;;;;;;;12.95;7.38;;;;;;;;;;5013223;28;20041;-76
2024/01/30 00:28:42;;;;;;;13.50;5.88;;;-0.80;99.90;;;;;;5018506;28;20538;-77
2024/01/30 00:31:12;;;;;;;11.05;5.32;;;;;;;;;;5006297;28;21683;-77
2024/01/30 00:33:38;;;;;;;12.75;6.68;;;;;;;;;;5023017;28;20092;-77
2024/01/30 00:36:04;;;;;;;12.82;6.43;;;;;;;;;;5028170;28;20033;-75
2024/01/30 00:38:30;;;;;;;10.25;6.10;;;;;;;;;;5021489;28;20042;-76
2024/01/30 00:40:56;;;;;;;12.15;5.50;;;;;;;;;;5027310;28;20056;-77
2024/01/30 00:43:22;;;;;;;11.10;4.65;;;;;;;;;;5022616;28;20032;-77
2024/01/30 00:45:47;;;;;;;10.95;6.07;;;;;;;;;;5029868;28;20124;-76
2024/01/30 00:48:13;;;;;;;12.10;5.65;;;;;;;;;;5019058;28;20109;-76
2024/01/30 00:50:39;;;;;;;12.82;5.07;;;;;;;;;;5025191;28;20025;-77
2024/01/30 00:53:05;;;;;;;9.27;5.25;;;;;;;;;;5027257;28;20491;-77
2024/01/30 00:55:31;;;;;;;15.15;7.35;;;;;;;;;;5023693;28;20049;-77
2024/01/30 00:57:57;;;;;;;15.43;6.22;;;;;;;;;;5025344;28;20060;-75
2024/01/30 01:00:28;;;;;;;7.68;4.72;;;;;;;;;;5015323;28;20033;-76
2024/01/30 01:02:54;;;;;;;17.15;6.45;;;;;;;;;;5022291;28;20316;-77
2024/01/30 01:05:20;;;;;;;12.80;6.63;;;;;;;;;;5027524;28;20033;-76
2024/01/30 01:07:48;;;;;;;11.70;5.47;;;;;;;;;;5022933;28;20033;-76
2024/01/30 01:10:14;;;;;;;5.82;3.85;;;;;;;;;;5018685;28;20381;-78
2024/01/30 01:12:40;;;;;;;9.23;5.00;;;;;;;;;;5026971;28;20108;-77
2024/01/30 01:15:09;;;;;;;11.25;5.40;;;;;;;;;;5026847;28;20032;-77
2024/01/30 01:17:35;;;;;;;18.27;5.65;;;;;;;;;;5018752;28;20030;-76
2024/01/30 01:20:01;;;;;;;11.88;6.07;;;;;;;;;;5025087;28;20029;-77
2024/01/30 01:22:27;;;;;;;8.18;4.70;;;;;;;;;;5019276;28;20050;-76
2024/01/30 01:24:53;;;;;;;14.45;5.50;;;;;;;;;;5018497;28;20065;-75
2024/01/30 01:27:19;;;;;;;10.40;6.00;;;;;;;;;;5023985;28;20069;-76
2024/01/30 01:29:45;;;;;;;20.00;5.95;;;;;;;;;;5024024;28;20035;-77
2024/01/30 01:32:11;;;;;;;13.52;6.45;;;;;;;;;;5023254;28;20021;-76
2024/01/30 01:34:37;;;;;;;19.60;7.00;;;;;;;;;;5016895;28;20492;-75
2024/01/30 01:37:03;;;;;;;12.43;5.70;;;;;;;;;;5014537;28;20022;-76
2024/01/30 01:39:29;;;;;;;11.13;7.00;;;;;;;;;;5016087;28;20021;-77
2024/01/30 01:41:55;;;;;;;15.02;7.00;;;;;;;;;;5016990;28;20656;-77
2024/01/30 01:44:21;;;;;;;14.48;6.75;;;;;;;;;;5013682;28;20038;-75
2024/01/30 01:46:48;;;;;;;10.18;5.30;;;;;;;;;;5017887;28;20105;-76
2024/01/30 01:49:14;;;;;;;14.07;5.60;;;;;;;;;;5020006;28;20099;-76
2024/01/30 01:51:41;;;;;;;16.08;6.82;;;;;;;;;;5025043;28;20499;-78
2024/01/30 01:54:08;;;;;;;6.78;4.80;;;;;;;;;;5024578;28;20076;-76
2024/01/30 01:56:35;;;;;;;15.13;6.78;;;;;;;;;;5018753;28;20758;-77
2024/01/30 01:59:05;;;;;;;9.55;6.50;;;;;;;;;;5022751;28;20026;-77
2024/01/30 02:01:31;;;;;;;9.82;5.85;;;;;;;;;;5021131;28;20147;-77
2024/01/30 02:03:57;;;;;;;11.85;6.78;;;;;;;;;;5014620;28;20059;-76
2024/01/30 02:06:23;;;;;;;12.63;7.20;;;;;;;;;;5020116;28;20392;-76
2024/01/30 02:08:49;;;;;;;14.00;6.07;;;;;;;;;;5016922;28;20111;-77
2024/01/30 02:11:16;;;;;;;11.07;5.07;;;;;;;;;;5017229;28;20492;-75
2024/01/30 02:13:42;;;;;;;14.32;6.90;;;;;;;;;;5023145;28;20255;-76
2024/01/30 02:16:08;;;;;;;15.68;5.40;;;;;;;;;;5026116;28;20033;-76
2024/01/30 02:18:35;;;;;;;15.23;6.25;;;;;;;;;;5008780;28;20030;-76
2024/01/30 02:21:05;;;;;;;9.80;6.70;;;;;;;;;;5023607;28;20037;-77
2024/01/30 02:23:31;;;;;;;11.00;6.40;;;;;;;;;;5011942;28;20038;-77
2024/01/30 02:25:57;;;;;;;11.95;5.57;;;;;;;;;;5022463;28;20037;-77
2024/01/30 02:28:23;;;;;;;20.33;6.88;;;;;;;;;;5013825;28;20469;-76
2024/01/30 02:30:49;;;;;;;15.48;7.40;;;;;;;;;;5023074;28;20550;-77
2024/01/30 02:33:15;;;;;;;10.77;6.38;;;;;;;;;;5013993;28;20018;-75
2024/01/30 02:35:41;;;;;;;13.43;6.68;;;;;;;;;;5026377;28;20073;-77
2024/01/30 02:38:07;;;;;;;14.25;6.45;;;;;;;;;;5020523;28;20055;-78
2024/01/30 02:40:33;;;;;;;18.00;8.82;;;;;;;;;;5012045;28;21835;-76
2024/01/30 02:43:00;;;;;;;15.63;6.88;;;;;;;;;;5018398;28;20107;-77
2024/01/30 02:45:26;;;;;;;11.15;6.07;;;;;;;;;;5016823;28;20026;-76
2024/01/30 02:47:52;;;;;;;9.13;5.68;;;;;;;;;;5016973;28;20021;-76
2024/01/30 02:50:18;;;;;;;11.52;6.20;;;;;;;;;;5033053;28;20037;-74
2024/01/30 02:52:44;;;;;;;15.93;7.65;;;;;;;;;;5045133;28;20057;-76
2024/01/30 02:55:10;;;;;;;14.60;7.93;;;;;;;;;;5023052;28;20034;-78
2024/01/30 02:57:36;;;;;;;12.25;7.05;;;;;;;;;;5025196;28;20033;-77
2024/01/30 03:00:05;;;;;;;14.25;6.25;;;;;;;;;;5023148;28;20026;-76
2024/01/30 03:02:31;;;;;;;14.85;6.95;;;;;;;;;;5020812;28;20029;-78
2024/01/30 03:04:57;;;;;;;19.90;8.38;;;;;;;;;;5019177;28;20472;-78
2024/01/30 03:07:23;;;;;;;16.63;6.93;;;;;;;;;;5020410;28;20045;-77
2024/01/30 03:09:49;;;;;;;16.25;7.15;;;;;;;;;;5020054;28;20136;-77
2024/01/30 03:12:15;;;;;;;19.15;8.30;;;;;;;;;;5020508;28;20218;-78
2024/01/30 03:14:41;;;;;;;16.70;7.57;;;;;;;;;;5012795;28;20459;-78
2024/01/30 03:17:07;;;;;;;14.82;5.85;;;;;;;;;;5021622;28;20488;-77
2024/01/30 03:19:33;;;;;;;21.25;6.88;;;;;;;;;;5025374;28;20028;-77
2024/01/30 03:21:59;;;;;;;11.52;7.00;;;;;;;;;;5023165;28;20030;-77
2024/01/30 03:24:25;;;;;;;16.23;6.65;;;;;;;;;;5017869;28;20125;-77
2024/01/30 03:26:51;;;;;;;11.30;6.32;;;;;;;;;;5014199;28;20116;-78
2024/01/30 03:29:17;;;;;;;16.70;8.13;;;;;;;;;;5013921;28;20120;-77
2024/01/30 03:31:43;;;;;;;12.52;6.22;;;;;;;;;;5019050;28;20436;-77
2024/01/30 03:34:09;;;;;;;8.90;6.20;;;;;;;;;;5011587;28;20032;-78
2024/01/30 03:36:35;;;;;;;10.55;5.95;;;;;;;;;;5021384;28;20052;-77
2024/01/30 03:39:02;;;;;;;10.15;6.43;;;;;;;;;;5022759;28;20052;-76
2024/01/30 03:41:27;;;;;;;11.85;7.18;;;;;;;;;;5015601;28;20033;-77
2024/01/30 03:43:53;;;;;;;11.13;6.07;;;;;;;;;;5024724;28;20022;-77
2024/01/30 03:46:19;;;;;;;10.60;5.97;;;;;;;;;;5027229;28;20041;-77
2024/01/30 03:48:46;;;;;;;13.80;5.40;;;;;;;;;;5026260;28;20730;-77
2024/01/30 03:51:14;;;;;;;14.70;6.93;;;;;;;;;;5025533;28;20021;-74
2024/01/30 03:53:41;;;;;;;11.50;6.90;;;;;;;;;;5020279;28;20018;-78
2024/01/30 03:56:07;;;;;;;17.08;6.80;;;;;;;;;;5025880;28;20084;-77
2024/01/30 03:58:33;;;;;;;11.63;6.88;;;;;;;;;;5023567;28;20240;-77
2024/01/30 04:00:59;;;;;;;23.13;7.18;;;;;;;;;;5025096;28;20029;-77
2024/01/30 04:03:25;;;;;;;11.25;6.88;;;;;;;;;;5008062;28;20042;-76
2024/01/30 04:05:52;;;;;;;13.98;7.28;;;;;;;;;;5019568;28;20038;-76
2024/01/30 04:08:18;;;;;;;20.02;7.65;;;;;;;;;;5025475;28;20492;-77
2024/01/30 04:10:44;;;;;;;18.98;7.80;;;;;;;;;;5023775;28;20030;-76
2024/01/30 04:13:10;;;;;;;12.95;7.13;;;;;;;;;;5022942;28;20534;-77
2024/01/30 04:15:36;;;;;;;13.43;7.72;;;;;;;;;;5015659;28;20025;-77
2024/01/30 04:18:02;;;;;;;15.43;7.60;;;;;;;;;;5015445;28;20057;-76
2024/01/30 04:20:28;;;;;;;18.42;7.82;;;;;;;;;;5020479;28;20130;-76
2024/01/30 04:22:54;;;;;;;18.35;7.22;;;;;;;;;;5021155;28;20030;-76
2024/01/30 04:25:20;;;;;;;20.10;6.80;;;;;;;;;;5016590;28;20049;-77
2024/01/30 04:27:46;;;;;;;14.60;7.20;;;;;;;;;;5027086;28;20030;-77
2024/01/30 04:30:12;;;;;;;12.68;6.57;;;;;;;;;;5017362;28;20686;-77
2024/01/30 04:32:38;;;;;;;12.57;6.40;;;;;;;;;;5019025;28;20040;-76
2024/01/30 04:35:04;;;;;;;16.95;6.78;;;;;;;;;;5024205;28;20116;-76
2024/01/30 04:37:31;;;;;;;11.30;5.55;;;;;;;;;;5010874;28;20516;-77
2024/01/30 04:39:57;;;;;;;13.85;6.30;;;;;;;;;;5018890;28;20037;-76
2024/01/30 04:42:23;;;;;;;13.43;6.95;;;;;;;;;;5020390;28;20036;-76
2024/01/30 04:44:49;;;;;;;11.95;7.07;;;;;;;;;;5022895;28;20056;-76
2024/01/30 04:47:15;;;;;;;10.80;6.68;;;;;;;;;;5020650;28;20049;-76
2024/01/30 04:49:41;;;;;;;14.23;5.38;;;;;;;;;;5023101;28;20029;-76
2024/01/30 04:52:08;;;;;;;13.55;7.43;;;;;;;;;;5009195;28;20464;-77
2024/01/30 04:54:34;;;;;;;17.77;6.60;;;;;;;;;;5015236;28;20032;-76
2024/01/30 04:57:00;;;;;;;18.10;5.60;;;;;;;;;;5019441;28;20037;-76
2024/01/30 04:59:26;;;;;;;9.48;5.65;;;;;;;;;;5002707;28;20080;-77
2024/01/30 05:01:52;;;;;;;12.27;6.60;;;;;;;;;;5009854;28;20022;-76
2024/01/30 05:04:18;;;;;;;12.00;6.20;;;;;;;;;;5019119;28;20121;-76
2024/01/30 05:06:44;;;;;;;10.23;5.50;;;;;;;;;;5018393;28;20125;-76
2024/01/30 05:09:10;;;;;;;12.77;7.05;;;;;;;;;;5021182;28;20517;-76
2024/01/30 05:11:39;;;;;;;20.85;7.82;;;;;;;;;;5021648;28;21266;-75
2024/01/30 05:14:06;;;;;;;12.10;6.32;;;;;;;;;;5022346;28;20061;-76
2024/01/30 05:16:32;;;;;;;18.88;6.32;;;;;;;;;;5014188;28;20377;-77
2024/01/30 05:18:58;;;;;;;17.55;6.55;;;;;;;;;;5019103;28;20030;-77
2024/01/30 05:21:24;;;;;;;14.18;5.82;;;;;;;;;;5019577;28;20508;-79
2024/01/30 05:23:50;;;;;;;10.63;6.00;;;;;;;;;;5017375;28;20053;-76
2024/01/30 05:26:16;;;;;;;11.55;6.35;;;;;;;;;;5017712;28;20162;-76
2024/01/30 05:28:44;;;;;;;9.70;6.15;;;;;;;;;;5016384;28;20037;-76
2024/01/30 05:31:10;;;;;;;13.50;6.55;;;;;;;;;;5008256;28;20520;-76
2024/01/30 05:33:36;;;;;;;11.98;7.00;;;;;;;;;;5019882;28;20135;-76
2024/01/30 05:36:02;;;;;;;10.80;5.68;;;;;;;;;;5017664;28;20060;-76
2024/01/30 05:38:28;;;;;;;14.82;6.95;;;;;;;;;;5018820;28;20028;-76
2024/01/30 05:40:54;;;;;;;10.55;5.68;;;;;;;;;;5014479;28;20772;-77
2024/01/30 05:43:20;;;;;;;12.88;6.80;;;;;;;;;;5017892;28;20511;-76
2024/01/30 05:45:46;;;;;;;6.03;4.63;;;;;;;;;;5024898;28;20032;-77
2024/01/30 05:48:11;;;;;;;13.98;7.72;;;;;;;;;;5028624;28;20079;-77
2024/01/30 05:50:37;;;;;;;12.43;5.90;;;;;;;;;;5023305;28;20021;-77
2024/01/30 05:53:03;;;;;;;11.50;5.63;;;;;;;;;;5015997;28;20447;-77
2024/01/30 05:55:29;;;;;;;13.23;7.45;;;;;;;;;;5022899;28;20056;-78
2024/01/30 05:57:55;;;;;;;10.80;6.10;;;;;;;;;;5025331;28;20030;-78
2024/01/30 06:00:21;;;;;;;15.55;6.82;;;;;;;;;;5027870;28;20113;-78
2024/01/30 06:02:47;;;;;;;16.88;7.57;;;;;;;;;;5021727;28;20030;-77
2024/01/30 06:05:13;;;;;;;11.90;6.00;;;;;;;;;;5035784;28;20107;-76
2024/01/30 06:07:39;;;;;;;15.43;6.15;;;;;;;;;;5038867;28;20042;-76
2024/01/30 06:10:06;;;;;;;9.60;5.07;;;;;;;;;;5028506;28;20024;-79
2024/01/30 06:12:32;;;;;;;13.80;6.95;;;;;;;;;;5023695;28;20037;-78
2024/01/30 06:14:58;;;;;;;11.75;6.80;;;;;;;;;;5015681;28;20022;-78
2024/01/30 06:17:24;;;;;;;10.40;6.15;;;;;;;;;;5016519;28;20090;-78
2024/01/30 06:19:50;;;;;;;17.95;7.93;;;;;;;;;;5030184;28;21709;-79
2024/01/30 06:22:16;;;;;;;10.68;5.95;;;;;;;;;;5019503;28;20025;-78
2024/01/30 06:24:44;;;;;;;11.43;6.57;;;;;;;;;;5020899;28;20542;-79
2024/01/30 06:27:10;;;;;;;13.18;7.25;;;;;;;;;;5021632;28;20484;-78
2024/01/30 06:29:36;;;;;;;14.20;7.95;;;;;;;;;;5025922;28;20032;-77
2024/01/30 06:32:02;;;;;;;13.02;7.97;;;;;;;;;;5019016;28;20060;-79
2024/01/30 06:34:28;;;;;;;17.27;8.40;;;;;;;;;;5028660;28;20544;-77
2024/01/30 06:36:54;;;;;;;10.75;6.50;;;;;;;;;;5014884;28;20124;-79
2024/01/30 06:39:20;;;;;;;14.85;8.55;;;;;;;;;;5011525;28;20715;-78
2024/01/30 06:41:46;;;;;;;10.77;6.20;;;;;;;;;;5020434;28;20356;-79
2024/01/30 06:44:12;;;;;;;12.32;7.38;;;;;;;;;;5026936;28;20048;-78
2024/01/30 06:46:38;;;;;;;9.40;6.10;;;;;;;;;;5016730;28;20037;-78
2024/01/30 06:49:05;;;;;;;7.95;5.28;;;;;;;;;;5019258;28;20040;-78
2024/01/30 06:51:32;;;;;;;12.15;6.13;;;;;;;;;;5019122;28;20580;-79
2024/01/30 06:53:58;;;;;;;13.00;7.75;;;;;;;;;;5024159;28;20029;-79
2024/01/30 06:56:24;;;;;;;18.60;5.80;;;;;;;;;;5011612;28;20089;-79
2024/01/30 06:58:50;;;;;;;20.70;7.65;;;;;;;;;;5023125;28;21918;-78
2024/01/30 07:01:16;;;;;;;9.60;6.32;;;;;;;;;;5023075;28;20086;-78
2024/01/30 07:03:42;;;;;;;12.77;7.30;;;;;;;;;;5019205;28;20112;-77
2024/01/30 07:06:09;;;;;;;15.32;7.10;;;;;;;;;;5022875;28;20130;-78
2024/01/30 07:08:35;;;;;;;13.27;6.40;;;;;;;;;;5025027;28;20125;-78
2024/01/30 07:11:01;;;;;;;13.90;7.85;;;;;;;;;;5013823;28;20528;-77
2024/01/30 07:13:28;;;;;;;16.13;7.88;;;;;;;;;;5018671;28;20048;-78
2024/01/30 07:15:54;;;;;;;15.75;8.50;;;;;;;;;;5023189;28;20499;-78
2024/01/30 07:18:20;;;;;;;11.40;7.47;;;;;;;;;;5019473;28;20037;-77
2024/01/30 07:20:47;;;;;;;13.20;6.93;;;;;;;;;;5027401;28;20083;-78
2024/01/30 07:23:15;;;;;;;14.75;10.02;;;;;;;;;;5019606;28;20144;-78
2024/01/30 07:25:42;;;;;;;16.30;9.15;;;;;;;;;;5021415;28;20042;-78
2024/01/30 07:28:12;;;;;;;12.88;7.47;;;;;;;;;;5017309;28;20030;-79
2024/01/30 07:30:38;;;;;;;13.90;8.88;;;;;;;;;;5026708;28;20105;-76
2024/01/30 07:33:04;;;;;;;12.95;6.85;;;;;;;;;;5015598;28;20623;-77
2024/01/30 07:35:30;;;;;;;13.68;7.07;;;;;;;;;;5021132;28;20264;-79
2024/01/30 07:37:57;;;;;;;12.32;7.13;;;;;;;;;;5021872;28;20392;-77
2024/01/30 07:40:23;;;;;;;13.95;7.78;;;;;;;;;;5020554;28;20036;-78
2024/01/30 07:42:49;;;;;;;13.10;7.70;;;;;;;;;;5022450;28;20032;-79
2024/01/30 07:45:16;;;;;;;12.13;6.95;;;;;;;;;;5025430;28;20392;-78
2024/01/30 07:47:42;;;;;;;14.88;7.15;;;;;;;;;;5021318;28;20557;-77
2024/01/30 07:50:08;;;;;;;13.07;7.22;;;;;;;;;;5027080;28;20041;-78
2024/01/30 07:52:34;;;;;;;14.73;7.60;;;;;;;;;;5019865;28;20022;-76
2024/01/30 07:55:00;;;;;;;14.40;7.00;;;;;;;;;;5018977;28;20459;-78
2024/01/30 07:57:26;;;;;;;14.40;6.90;;;;;;;;;;5015901;28;20117;-77
2024/01/30 07:59:52;;;;;;;12.27;7.72;;;;;;;;;;5011948;28;20037;-78
2024/01/30 08:02:18;;;;;;;11.98;7.70;;;;;;;;;;5015925;28;20033;-77
2024/01/30 08:04:48;;;;;;;17.50;8.77;;;;;;;;;;5020733;28;20065;-77
2024/01/30 08:07:14;;;;;;;15.57;7.75;;;;;;;;;;5024867;28;20125;-77
2024/01/30 08:09:40;;;;;;;15.45;6.82;;;;;;;;;;5022679;28;20121;-77
2024/01/30 08:12:06;;;;;;;14.80;6.50;;;;;;;;;;5017472;28;20028;-78
2024/01/30 08:14:32;;;;;;;12.88;7.35;;;;;;;;;;5023885;28;20072;-78
2024/01/30 08:16:58;;;;;;;12.77;7.95;;;;;;;;;;5019259;28;20504;-77
2024/01/30 08:19:24;;;;;;;13.98;8.45;;;;;;;;;;5020826;28;20034;-78
2024/01/30 08:21:50;;;;;;;20.95;9.80;;;;;;;;;;5020234;28;20518;-78
2024/01/30 08:24:16;;;;;;;23.00;9.93;;;;;;;;;;5020015;28;20033;-77
2024/01/30 08:26:42;;;;;;;17.60;8.88;;;;;;;;;;5014075;28;20044;-77
2024/01/30 08:29:08;;;;;;;22.80;8.77;;;;;;;;;;5025087;28;20057;-78
2024/01/30 08:31:34;;;;;;;21.25;9.55;;;;;;;;;;5022436;28;21561;-77
2024/01/30 08:34:00;;;;;;;19.42;10.18;;;;;;;;;;5023402;28;20186;-78
2024/01/30 08:36:26;;;;;;;17.35;9.27;;;;;;;;;;5022966;28;20113;-79
2024/01/30 08:38:52;;;;;;;19.27;9.15;;;;;;;;;;5020945;28;20542;-77
2024/01/30 08:41:18;;;;;;;33.72;14.57;;;;;;;;;;5021925;28;20041;-78
2024/01/30 08:43:44;;;;;;;30.88;13.63;;;;;;;;;;5025616;28;20080;-77
2024/01/30 08:46:10;;;;;;;25.55;10.48;;;;;;;;;;5025780;28;20511;-78
2024/01/30 08:48:36;;;;;;;29.23;13.70;;;;;;;;;;5023663;28;20071;-78
2024/01/30 08:51:03;;;;;;;31.10;14.40;;;;;;;;;;5029709;28;20038;-77
2024/01/30 08:53:29;;;;;;;33.42;14.73;;;;;;;;;;5024181;28;20037;-78
2024/01/30 08:55:54;;;;;;;35.15;13.63;;;;;;;;;;5025580;28;20099;-78
2024/01/30 08:58:20;;;;;;;27.25;12.75;;;;;;;;;;5013907;28;20029;-78
2024/01/30 09:00:46;;;;;;;35.25;17.02;;;;;;;;;;5031523;28;20029;-78
2024/01/30 09:03:12;;;;;;;35.50;18.38;;;;;;;;;;5020547;28;20034;-77
2024/01/30 09:05:38;;;;;;;40.25;18.27;;;;;;;;;;5030383;28;20029;-78
2024/01/30 09:08:05;;;;;;;31.70;15.45;;;;;;;;;;5028936;28;20034;-77
2024/01/30 09:10:30;;;;;;;28.77;13.40;;;;;;;;;;5025639;28;20230;-78
2024/01/30 09:12:56;;;;;;;23.77;13.75;;;;;;;;;;5026217;28;20183;-78
2024/01/30 09:15:22;;;;;;;25.42;12.98;;;;;;;;;;5021120;28;20112;-78
2024/01/30 09:17:48;;;;;;;22.77;11.70;;;;;;;;;;5025278;28;20032;-77
2024/01/30 09:20:14;;;;;;;26.35;10.85;;;;;;;;;;5018951;28;20029;-79
2024/01/30 09:22:40;;;;;;;20.20;11.30;;;;;;;;;;5024932;28;20039;-78
2024/01/30 09:25:06;;;;;;;19.60;10.20;;;;;;;;;;5022567;28;20033;-78
2024/01/30 09:27:32;;;;;;;18.00;10.57;;;;;;;;;;5022540;28;20057;-76
2024/01/30 09:29:58;;;;;;;22.55;10.48;;;;;;;;;;5043233;28;20021;-76
2024/01/30 09:32:24;;;;;;;18.15;9.40;;;;;;;;;;5043998;28;20141;-77
2024/01/30 09:34:50;;;;;;;27.40;11.02;;;;;;;;;;5042467;28;20514;-79
2024/01/30 09:37:17;;;;;;;17.85;9.45;;;;;;;;;;5027235;28;20059;-78
2024/01/30 09:39:43;;;;;;;20.30;10.30;;;;;;;;;;5033072;28;20100;-80
2024/01/30 09:42:18;;;;;;;21.35;9.65;;;;;;;;;;5024644;28;20180;-80
2024/01/30 09:44:44;;;;;;;20.85;10.52;;;;;;;;;;5015476;28;20397;-78
2024/01/30 09:47:10;;;;;;;17.42;10.60;;;;;;;;;;5028110;28;20021;-79
2024/01/30 09:49:37;;;;;;;14.60;8.50;;;;;;;;;;5026202;28;20041;-79
2024/01/30 09:52:03;;;;;;;17.63;9.13;;;;;;;;;;5031550;28;20075;-79
2024/01/30 09:54:31;;;;;;;18.65;9.27;;;;;;;;;;5022387;28;20044;-79
2024/01/30 09:56:57;;;;;;;13.77;7.13;;;;;;;;;;5021182;28;20037;-78
2024/01/30 09:59:23;;;;;;;15.27;8.18;;;;;;;;;;5022883;28;20029;-77
2024/01/30 10:01:50;;;;;;;20.27;7.55;;;;;;;;;;5025702;28;20080;-79
2024/01/30 10:04:16;;;;;;;14.65;6.90;;;;;;;;;;5021616;28;20603;-78
2024/01/30 10:06:42;;;;;;;15.10;7.55;;;;;;;;;;5016762;28;20129;-78
2024/01/30 10:09:11;;;;;;;15.70;6.43;;;;;;;;;;5023750;28;20026;-80
2024/01/30 10:11:37;;;;;;;11.30;6.13;;;;;;;;;;5017688;28;20021;-79
2024/01/30 10:14:03;;;;;;;15.55;6.55;;;;;;;;;;5021776;28;20453;-78
2024/01/30 10:16:29;;;;;;;12.18;5.85;;;;;;;;;;5022997;28;20111;-78
2024/01/30 10:18:55;;;;;;;12.18;5.32;;;;;;;;;;5024349;28;20061;-78
2024/01/30 10:21:21;;;;;;;11.73;6.60;;;;;;;;;;5024568;28;20021;-78
2024/01/30 10:23:47;;;;;;;12.35;6.07;;;;;;;;;;5021281;28;20635;-76
2024/01/30 10:26:14;;;;;;;12.07;6.03;;;;;;;;;;5019178;28;20041;-78
2024/01/30 10:28:40;;;;;;;14.15;6.68;;;;;;;;;;5024338;28;20479;-77
2024/01/30 10:31:05;;;;;;;9.27;6.15;;;;;;;;;;5015188;28;20025;-77
2024/01/30 10:33:31;;;;;;;8.65;5.15;;;;;;;;;;5017369;28;20060;-77
2024/01/30 10:36:01;;;;;;;10.02;5.32;;;;;;;;;;5015372;28;20029;-78
2024/01/30 10:38:30;;;;;;;9.20;5.65;;;6.60;99.90;;;;;;5022757;28;20080;-77
2024/01/30 10:40:57;;;;;;;11.30;5.93;;;;;;;;;;5024560;28;20029;-77
2024/01/30 10:43:23;;;;;;;9.43;5.20;;;;;;;;;;5019323;28;20088;-77
2024/01/30 10:45:50;;;;;;;10.05;5.43;;;;;;;;;;5015385;28;20415;-78
2024/01/30 10:48:18;;;;;;;11.27;5.70;;;;;;;;;;5022998;28;20017;-77
2024/01/30 10:50:46;;;;;;;9.07;5.05;;;;;;;;;;5023104;28;20029;-77
2024/01/30 10:53:13;;;;;;;11.10;5.25;;;;;;;;;;5018823;28;20038;-78
2024/01/30 10:55:39;;;;;;;8.68;5.60;;;;;;;;;;5019650;28;20033;-77
2024/01/30 10:58:05;;;;;;;10.30;4.85;;;;;;;;;;5020151;28;20040;-77
2024/01/30 11:00:33;;;;;;;12.60;5.50;;;;;;;;;;5014397;28;20029;-78
2024/01/30 11:02:59;;;;;;;11.93;5.35;;;;;;;;;;5021304;28;20131;-76
2024/01/30 11:05:27;;;;;;;14.88;5.28;;;;;;;;;;5016855;28;20053;-77
2024/01/30 11:07:53;;;;;;;10.95;5.63;;;;;;;;;;5019318;28;20036;-77
2024/01/30 11:10:19;;;;;;;8.68;5.22;;;;;;;;;;5021645;28;20033;-78
2024/01/30 11:12:47;;;;;;;10.80;5.40;;;;;;;;;;5023743;28;20120;-78
2024/01/30 11:15:14;;;;;;;8.32;5.32;;;;;;;;;;5023711;28;20061;-80
2024/01/30 11:17:49;;;;;;;12.65;6.03;;;;;;;;;;5020611;28;20026;-80
2024/01/30 11:20:22;;;;;;;11.35;5.30;;;;;;;;;;5025625;28;20044;-79
2024/01/30 11:22:51;;;;;;;10.90;5.40;;;;;;;;;;5019219;28;20100;-78
2024/01/30 11:25:18;;;;;;;12.32;6.05;;;;;;;;;;5019952;28;20415;-78
2024/01/30 11:27:44;;;;;;;12.57;6.18;;;;;;;;;;5017198;28;20042;-78
2024/01/30 11:30:11;;;;;;;9.65;5.38;;;;;;;;;;5023016;28;20034;-80
2024/01/30 11:32:37;;;;;;;16.50;5.13;;;;;;;;;;5017951;28;20176;-80
2024/01/30 11:35:06;;;;;;;10.30;4.85;;;;;;;;;;5023807;28;20033;-79
2024/01/30 11:37:32;;;;;;;11.77;5.00;;;;;;;;;;5024775;28;20443;-78
2024/01/30 11:39:59;;;;;;;8.63;4.78;;;;;;;;;;5022011;28;20030;-79
2024/01/30 11:42:25;;;;;;;12.07;5.00;;;;;;;;;;5029878;28;20021;-80
2024/01/30 11:44:51;;;;;;;10.27;4.90;;;;;;;;;;5010684;28;20162;-79
2024/01/30 11:47:17;;;;;;;10.98;5.20;;;;;;;;;;5020380;28;20030;-80
2024/01/30 11:49:43;;;;;;;8.70;5.18;;;;;;;;;;5021554;28;20040;-79
2024/01/30 11:52:09;;;;;;;11.75;5.03;;;;;;;;;;5029020;28;20112;-79
2024/01/30 11:54:36;;;;;;;8.35;4.35;;;;;;;;;;5020311;28;20615;-78
2024/01/30 11:57:02;;;;;;;10.10;5.22;;;;;;;;;;5026919;28;20037;-79
2024/01/30 11:59:29;;;;;;;11.05;5.13;;;;;;;;;;5021309;28;20329;-79
2024/01/30 12:01:55;;;;;;;9.23;4.65;;;;;;;;;;5013503;28;20080;-81
2024/01/30 12:04:21;;;;;;;10.57;4.72;;;;;;;;;;5006449;28;20068;-79
2024/01/30 12:06:51;;;;;;;7.25;4.18;;;;;;;;;;5024833;28;20045;-80
2024/01/30 12:09:17;;;;;;;10.75;4.47;;;;;;;;;;5024643;28;20036;-79
2024/01/30 12:11:49;;;;;;;9.02;4.38;;;;;;;;;;5027532;28;20116;-78
2024/01/30 12:14:17;;;;;;;10.15;5.10;;;;;;;;;;5031359;28;20382;-77
2024/01/30 12:16:43;;;;;;;8.57;4.40;;;;;;;;;;5023572;28;20038;-78
2024/01/30 12:19:09;;;;;;;9.77;4.85;;;;;;;;;;5025758;28;20185;-77
2024/01/30 12:21:35;;;;;;;7.25;4.18;;;;;;;;;;5023159;28;20662;-79
2024/01/30 12:24:01;;;;;;;7.63;4.53;;;;;;;;;;5022767;28;20029;-79
2024/01/30 12:26:28;;;;;;;6.28;3.95;;;;;;;;;;5015172;28;20040;-78
2024/01/30 12:28:58;;;;;;;7.40;4.13;;;;;;;;;;5028895;28;20434;-78
2024/01/30 12:31:27;;;;;;;9.40;4.95;;;8.80;99.90;;;;;;5022627;28;20273;-78
2024/01/30 12:33:53;;;;;;;8.15;4.50;;;;;;;;;;5025480;28;20029;-78
2024/01/30 12:36:19;;;;;;;9.50;4.57;;;;;;;;;;5023503;28;20079;-78
2024/01/30 12:38:45;;;;;;;11.10;4.45;;;;;;;;;;5028601;28;20037;-77
2024/01/30 12:41:11;;;;;;;13.48;5.32;;;;;;;;;;5019090;28;20041;-78
2024/01/30 12:43:37;;;;;;;11.65;5.00;;;8.70;99.90;;;;;;5026193;28;20091;-79
2024/01/30 12:46:03;;;;;;;9.85;4.53;;;;;;;;;;5024788;28;20042;-79
2024/01/30 12:48:29;;;;;;;8.90;4.40;;;;;;;;;;5025589;28;20121;-78
2024/01/30 12:50:56;;;;;;;8.60;4.22;;;;;;;;;;5031515;28;20033;-78
2024/01/30 12:53:22;;;;;;;7.00;4.07;;;;;;;;;;5027889;28;20038;-79
2024/01/30 12:55:49;;;;;;;9.43;5.68;;;;;;;;;;5017686;28;20036;-77
2024/01/30 12:58:15;;;;;;;12.35;4.35;;;;;;;;;;5012806;28;20032;-79
2024/01/30 13:00:43;;;;;;;8.70;4.80;;;;;;;;;;5023133;28;20021;-78
2024/01/30 13:03:09;;;;;;;8.25;3.70;;;;;;;;;;5022401;28;20025;-77
2024/01/30 13:05:35;;;;;;;7.82;4.20;;;;;;;;;;5018350;28;20147;-77
2024/01/30 13:08:01;;;;;;;7.38;3.53;;;;;;;;;;5009180;28;20112;-78
2024/01/30 13:10:27;;;;;;;7.85;4.05;;;;;;;;;;5024675;28;20029;-77
2024/01/30 13:12:53;;;;;;;7.85;4.15;;;;;;;;;;5027940;28;20547;-78
2024/01/30 13:15:19;;;;;;;6.72;4.20;;;;;;;;;;5025093;28;20026;-78
2024/01/30 13:17:47;;;;;;;8.90;3.70;;;;;;;;;;5017838;28;20391;-78
2024/01/30 13:20:16;;;;;;;10.75;4.03;;;;;;;;;;5024113;28;20025;-78
2024/01/30 13:22:42;;;;;;;7.53;3.40;;;;;;;;;;5022352;28;20035;-78
2024/01/30 13:25:08;;;;;;;7.40;3.83;;;;;;;;;;5024233;28;20651;-78
2024/01/30 13:27:34;;;;;;;7.82;3.35;;;;;;;;;;5026502;28;20056;-77
2024/01/30 13:30:00;;;;;;;9.52;4.57;;;;;;;;;;5029973;28;20129;-78
2024/01/30 13:32:26;;;;;;;5.22;3.58;;;;;;;;;;5034877;28;20097;-77
2024/01/30 13:34:52;;;;;;;10.82;3.55;;;;;;;;;;5037375;28;20025;-79
2024/01/30 13:37:18;;;;;;;9.48;3.08;;;;;;;;;;5028653;28;20034;-79
2024/01/30 13:39:44;;;;;;;6.90;3.83;;;;;;;;;;5030240;28;20021;-79
2024/01/30 13:42:10;;;;;;;8.95;3.88;;;;;;;;;;5020560;28;20041;-79
2024/01/30 13:44:36;;;;;;;6.15;3.40;;;;;;;;;;5034349;28;20041;-80
2024/01/30 13:47:02;;;;;;;6.80;3.85;;;;;;;;;;5022563;28;20509;-79
2024/01/30 13:49:28;;;;;;;8.57;2.92;;;;;;;;;;5032524;28;20056;-79
2024/01/30 13:51:54;;;;;;;5.00;2.80;;;;;;;;;;5024899;28;20038;-79
2024/01/30 13:54:20;;;;;;;7.68;3.30;;;;;;;;;;5032181;28;20029;-79
2024/01/30 13:56:46;;;;;;;4.80;2.85;;;;;;;;;;5019151;28;20037;-77
2024/01/30 13:59:12;;;;;;;4.40;2.67;;;;;;;;;;5017096;28;20184;-79
2024/01/30 14:01:38;;;;;;;7.28;3.17;;;;;;;;;;5018280;28;20026;-78
2024/01/30 14:04:04;;;;;;;7.10;3.55;;;;;;;;;;5016773;28;20030;-79
2024/01/30 14:06:30;;;;;;;7.70;3.53;;;;;;;;;;5013834;28;20044;-79
2024/01/30 14:08:56;;;;;;;4.05;2.15;;;;;;;;;;5016271;28;20037;-77
2024/01/30 14:11:22;;;;;;;4.20;2.25;;;;;;;;;;5018765;28;20025;-79
2024/01/30 14:13:48;;;;;;;6.28;2.63;;;9.10;99.90;;;;;;5021597;28;20056;-79
2024/01/30 14:16:14;;;;;;;4.55;2.28;;;;;;;;;;5021548;28;20043;-80
2024/01/30 14:18:41;;;;;;;4.38;1.90;;;;;;;;;;5020134;28;20045;-79
2024/01/30 14:21:08;;;;;;;3.97;2.35;;;;;;;;;;5027568;28;20025;-79
2024/01/30 14:23:34;;;;;;;6.75;2.85;;;;;;;;;;5023773;28;20032;-79
2024/01/30 14:26:00;;;;;;;5.05;2.40;;;;;;;;;;5025517;28;20052;-78